Time;durP1;ratioP1;P1;durP2;ratioP2;P2;SDS_P1;SDS_P2;PMS_P1;PMS_P2;Temp;Humidity;BMP_temperature;BMP_pressure;BME280_temperature;BME280_humidity;BME280_pressure;Samples;Min_cycle;Max_cycle;Signal;HPM_P1;HPM_P2
2022/03/11 00:00:40;;;;;;;4.97;3.20;;;10.60;1.00;;;;;;5067519;28;20461;-77
2022/03/11 00:03:10;;;;;;;5.30;3.50;;;10.20;1.00;;;;;;5066790;28;20480;-77
2022/03/11 00:05:39;;;;;;;5.20;3.20;;;10.20;1.00;;;;;;5074933;28;20827;-77
2022/03/11 00:08:09;;;;;;;6.33;3.57;;;10.20;1.00;;;;;;5085739;28;20472;-77
2022/03/11 00:10:37;;;;;;;3.03;2.53;;;10.20;1.00;;;;;;5090055;28;20453;-76
2022/03/11 00:13:06;;;;;;;3.87;2.87;;;10.20;1.00;;;;;;5088204;28;20448;-77
2022/03/11 00:15:34;;;;;;;3.23;2.93;;;10.20;1.00;;;;;;5086425;28;21016;-77
2022/03/11 00:18:02;;;;;;;2.93;2.23;;;10.20;1.00;;;;;;5083171;28;20522;-77
2022/03/11 00:20:31;;;;;;;3.27;2.20;;;10.20;1.00;;;;;;5084721;28;20467;-77
2022/03/11 00:23:00;;;;;;;3.50;2.50;;;10.20;1.00;;;;;;5088908;28;20577;-77
2022/03/11 00:25:31;;;;;;;7.10;5.13;;;10.00;1.00;;;;;;5086837;28;20510;-77
2022/03/11 00:28:00;;;;;;;5.10;3.43;;;10.00;1.00;;;;;;5085161;28;20474;-78
2022/03/11 00:30:28;;;;;;;6.90;3.63;;;9.90;1.00;;;;;;5085604;28;20455;-77
2022/03/11 00:32:57;;;;;;;4.10;2.70;;;9.70;1.00;;;;;;5082538;28;20448;-76
2022/03/11 00:35:25;;;;;;;2.97;2.70;;;9.70;1.00;;;;;;5084321;28;20456;-76
2022/03/11 00:37:53;;;;;;;3.70;2.73;;;9.80;1.00;;;;;;5083029;28;20860;-77
2022/03/11 00:40:21;;;;;;;5.10;3.23;;;9.70;1.00;;;;;;5083392;28;20944;-76
2022/03/11 00:42:51;;;;;;;3.10;2.80;;;9.60;1.00;;;;;;5084898;28;20487;-75
2022/03/11 00:45:19;;;;;;;6.03;3.53;;;9.60;1.00;;;;;;5087828;28;20509;-77
2022/03/11 00:47:47;;;;;;;5.43;3.40;;;9.60;1.00;;;;;;5084595;28;20488;-77
2022/03/11 00:50:16;;;;;;;4.50;2.73;;;9.60;1.00;;;;;;5090626;28;21064;-77
2022/03/11 00:52:44;;;;;;;4.90;2.50;;;9.60;1.00;;;;;;5089881;28;20453;-76
2022/03/11 00:55:12;;;;;;;4.97;3.30;;;9.60;1.00;;;;;;5084517;28;20488;-76
2022/03/11 00:57:41;;;;;;;4.50;3.83;;;9.70;1.00;;;;;;5080879;28;20470;-76
2022/03/11 01:00:11;;;;;;;6.00;3.97;;;9.50;1.00;;;;;;5082752;28;20945;-76
2022/03/11 01:02:40;;;;;;;3.73;2.80;;;9.50;1.00;;;;;;5085316;28;20498;-77
2022/03/11 01:05:09;;;;;;;6.13;4.30;;;9.50;1.00;;;;;;5081494;28;20460;-78
2022/03/11 01:07:38;;;;;;;7.33;4.30;;;9.40;1.00;;;;;;5082849;28;20501;-77
2022/03/11 01:10:07;;;;;;;6.57;4.30;;;9.40;1.00;;;;;;5088888;28;20514;-76
2022/03/11 01:12:37;;;;;;;4.33;3.30;;;9.40;1.00;;;;;;5092447;28;20795;-76
2022/03/11 01:15:07;;;;;;;5.77;3.60;;;9.30;1.00;;;;;;5092019;28;20519;-76
2022/03/11 01:17:36;;;;;;;4.57;3.10;;;9.30;1.00;;;;;;5089074;28;21158;-75
2022/03/11 01:20:06;;;;;;;9.47;3.50;;;9.20;1.00;;;;;;5090233;28;21377;-76
2022/03/11 01:22:34;;;;;;;4.07;3.07;;;9.40;1.00;;;;;;5091074;28;20484;-76
2022/03/11 01:25:02;;;;;;;5.27;4.00;;;9.30;1.00;;;;;;5086673;28;20476;-77
2022/03/11 01:27:31;;;;;;;4.40;3.40;;;9.30;1.00;;;;;;5095306;28;20467;-77
2022/03/11 01:29:59;;;;;;;6.40;4.33;;;9.30;1.00;;;;;;5087310;28;20974;-77
2022/03/11 01:32:27;;;;;;;9.23;4.07;;;9.30;1.00;;;;;;5088915;28;20466;-77
2022/03/11 01:34:56;;;;;;;5.40;3.90;;;9.20;1.00;;;;;;5091549;28;20463;-77
2022/03/11 01:37:25;;;;;;;4.50;3.77;;;9.10;1.00;;;;;;5087548;28;20476;-77
2022/03/11 01:39:53;;;;;;;7.87;4.23;;;8.90;1.00;;;;;;5087254;28;20849;-77
2022/03/11 01:42:21;;;;;;;8.70;4.70;;;8.90;1.00;;;;;;5088252;28;20824;-77
2022/03/11 01:44:49;;;;;;;4.17;3.60;;;9.10;1.00;;;;;;5088024;28;20891;-77
2022/03/11 01:47:17;;;;;;;5.17;3.13;;;9.00;1.00;;;;;;5086102;28;20484;-77
2022/03/11 01:49:45;;;;;;;8.03;4.37;;;9.00;1.00;;;;;;5090561;28;20458;-77
2022/03/11 01:52:15;;;;;;;5.87;4.13;;;9.10;1.00;;;;;;5089545;28;20461;-77
2022/03/11 01:54:45;;;;;;;7.03;3.63;;;9.20;1.00;;;;;;5091884;28;20482;-77
2022/03/11 01:57:14;;;;;;;5.30;3.90;;;9.10;1.00;;;;;;5090498;28;20840;-77
2022/03/11 01:59:43;;;;;;;5.30;3.70;;;8.90;1.00;;;;;;5090331;28;20524;-77
2022/03/11 02:02:12;;;;;;;5.30;3.70;;;8.90;1.00;;;;;;5089087;28;20464;-78
2022/03/11 02:04:41;;;;;;;5.63;4.10;;;8.90;1.00;;;;;;5090310;28;20484;-77
2022/03/11 02:07:10;;;;;;;9.20;3.70;;;9.00;1.00;;;;;;5090952;28;20491;-77
2022/03/11 02:09:39;;;;;;;7.00;4.50;;;9.00;1.00;;;;;;5085630;28;20457;-78
2022/03/11 02:12:09;;;;;;;6.27;4.60;;;9.00;1.00;;;;;;5088304;28;20464;-77
2022/03/11 02:14:37;;;;;;;8.50;3.50;;;9.00;1.00;;;;;;5093145;28;20454;-77
2022/03/11 02:17:05;;;;;;;12.33;4.40;;;8.90;1.00;;;;;;5090547;28;20473;-77
2022/03/11 02:19:34;;;;;;;6.00;4.30;;;8.90;1.00;;;;;;5091254;28;21378;-77
2022/03/11 02:22:04;;;;;;;7.57;5.00;;;8.80;1.00;;;;;;5090009;28;20538;-77
2022/03/11 02:24:34;;;;;;;9.07;4.60;;;8.80;1.00;;;;;;5090342;28;20483;-77
2022/03/11 02:27:02;;;;;;;6.47;4.27;;;8.80;1.00;;;;;;5087857;28;20508;-77
2022/03/11 02:29:31;;;;;;;8.30;5.47;;;8.70;1.00;;;;;;5086749;28;20454;-77
2022/03/11 02:31:59;;;;;;;4.53;3.60;;;8.70;1.00;;;;;;5087483;28;20465;-77
2022/03/11 02:34:27;;;;;;;6.90;4.70;;;8.80;1.00;;;;;;5086689;28;20456;-76
2022/03/11 02:36:55;;;;;;;5.27;4.40;;;8.50;1.00;;;;;;5086735;28;20456;-77
2022/03/11 02:39:23;;;;;;;6.33;4.50;;;8.60;1.00;;;;;;5090759;28;20521;-76
2022/03/11 02:41:53;;;;;;;6.33;5.20;;;8.60;1.00;;;;;;5091071;28;20463;-77
2022/03/11 02:44:22;;;;;;;6.40;5.00;;;8.60;1.00;;;;;;5089983;28;20480;-77
2022/03/11 02:46:51;;;;;;;6.50;4.40;;;8.60;1.00;;;;;;5091693;28;20448;-77
2022/03/11 02:49:19;;;;;;;5.10;4.57;;;8.50;1.00;;;;;;5078298;28;20971;-76
2022/03/11 02:51:47;;;;;;;5.73;4.77;;;8.40;1.00;;;;;;5087177;28;20458;-77
2022/03/11 02:54:15;;;;;;;6.43;4.73;;;8.40;1.00;;;;;;5085349;28;20468;-75
2022/03/11 02:56:43;;;;;;;6.97;4.83;;;8.30;1.00;;;;;;5082351;28;20471;-76
2022/03/11 02:59:13;;;;;;;7.93;5.60;;;8.20;1.00;;;;;;5079647;28;20475;-76
2022/03/11 03:01:41;;;;;;;6.67;4.70;;;8.10;1.00;;;;;;5081546;28;20458;-78
2022/03/11 03:04:11;;;;;;;8.37;5.43;;;8.10;1.00;;;;;;5083718;28;21243;-77
2022/03/11 03:06:39;;;;;;;7.77;4.43;;;8.20;1.00;;;;;;5091118;28;20457;-77
2022/03/11 03:09:08;;;;;;;7.90;5.73;;;8.10;1.00;;;;;;5082234;28;20456;-76
2022/03/11 03:11:36;;;;;;;5.23;4.73;;;8.10;1.00;;;;;;5077377;28;20452;-77
2022/03/11 03:14:04;;;;;;;6.73;4.40;;;8.10;1.00;;;;;;5090468;28;20459;-78
2022/03/11 03:16:33;;;;;;;9.00;4.70;;;8.10;1.00;;;;;;5085372;28;20896;-77
2022/03/11 03:19:02;;;;;;;7.43;4.73;;;8.10;1.00;;;;;;5085260;28;20480;-77
2022/03/11 03:21:30;;;;;;;4.70;3.40;;;8.10;1.00;;;;;;5084587;28;20448;-77
2022/03/11 03:23:58;;;;;;;5.93;3.90;;;8.00;1.00;;;;;;5089231;28;20528;-76
2022/03/11 03:26:26;;;;;;;5.00;3.70;;;7.90;1.00;;;;;;5085770;28;20470;-76
2022/03/11 03:28:54;;;;;;;6.40;4.03;;;7.90;1.00;;;;;;5084247;28;20514;-76
2022/03/11 03:31:23;;;;;;;7.13;5.47;;;7.90;1.00;;;;;;5086741;28;20446;-76
2022/03/11 03:33:52;;;;;;;6.87;4.30;;;7.90;1.00;;;;;;5087240;28;20460;-77
2022/03/11 03:36:20;;;;;;;6.40;4.43;;;7.90;1.00;;;;;;5088917;28;20463;-76
2022/03/11 03:38:49;;;;;;;10.47;5.87;;;7.80;1.00;;;;;;5086209;28;20894;-76
2022/03/11 03:41:17;;;;;;;8.20;5.37;;;7.90;1.00;;;;;;5090094;28;20534;-76
2022/03/11 03:43:45;;;;;;;8.40;5.37;;;7.80;1.00;;;;;;5087704;28;20940;-77
2022/03/11 03:46:14;;;;;;;10.87;7.20;;;7.90;1.00;;;;;;5087538;28;20436;-77
2022/03/11 03:48:43;;;;;;;9.00;6.73;;;7.90;1.00;;;;;;5087029;28;21020;-77
2022/03/11 03:51:12;;;;;;;9.27;6.77;;;7.90;1.00;;;;;;5085782;28;20459;-76
2022/03/11 03:53:40;;;;;;;12.37;8.03;;;8.00;1.00;;;;;;5086044;28;20447;-76
2022/03/11 03:56:09;;;;;;;9.10;7.63;;;8.00;1.00;;;;;;5085200;28;20443;-76
2022/03/11 03:58:37;;;;;;;11.27;7.40;;;8.00;1.00;;;;;;5084179;28;20490;-77
2022/03/11 04:01:05;;;;;;;11.93;8.00;;;8.00;1.00;;;;;;5088356;28;20505;-76
2022/03/11 04:03:35;;;;;;;13.13;7.57;;;8.10;1.00;;;;;;5087182;28;20984;-77
2022/03/11 04:06:03;;;;;;;12.00;7.23;;;8.10;1.00;;;;;;5088173;28;20491;-76
2022/03/11 04:08:33;;;;;;;11.43;8.13;;;8.10;1.00;;;;;;5086828;28;20519;-77
2022/03/11 04:11:01;;;;;;;12.93;7.20;;;8.20;1.00;;;;;;5086019;28;20454;-77
2022/03/11 04:13:30;;;;;;;14.37;7.60;;;8.10;1.00;;;;;;5087627;28;20463;-77
2022/03/11 04:15:58;;;;;;;13.97;7.33;;;8.20;1.00;;;;;;5090928;28;20442;-77
2022/03/11 04:18:27;;;;;;;15.90;8.70;;;8.20;1.00;;;;;;5079330;28;20478;-77
2022/03/11 04:20:55;;;;;;;10.40;7.63;;;8.20;1.00;;;;;;5086221;28;20464;-77
2022/03/11 04:23:23;;;;;;;10.70;7.40;;;8.20;1.00;;;;;;5089482;28;20513;-76
2022/03/11 04:25:53;;;;;;;17.43;9.43;;;8.20;1.00;;;;;;5086665;28;20484;-77
2022/03/11 04:28:21;;;;;;;13.20;8.23;;;8.10;1.00;;;;;;5087964;28;20527;-77
2022/03/11 04:30:49;;;;;;;11.43;7.43;;;8.10;1.00;;;;;;5089422;28;20838;-77
2022/03/11 04:33:17;;;;;;;14.50;9.07;;;8.10;1.00;;;;;;5084669;28;20482;-76
2022/03/11 04:35:46;;;;;;;12.80;9.00;;;8.00;1.00;;;;;;5093204;28;20858;-76
2022/03/11 04:38:14;;;;;;;11.77;8.70;;;8.10;1.00;;;;;;5091338;28;20472;-76
2022/03/11 04:40:42;;;;;;;8.97;7.57;;;8.00;1.00;;;;;;5094752;28;20450;-76
2022/03/11 04:43:12;;;;;;;14.83;7.97;;;8.10;1.00;;;;;;5088272;28;20452;-76
2022/03/11 04:45:40;;;;;;;14.00;9.10;;;8.00;1.00;;;;;;5092361;28;20477;-77
2022/03/11 04:48:08;;;;;;;10.90;8.00;;;7.90;1.00;;;;;;5093753;28;21034;-77
2022/03/11 04:50:36;;;;;;;16.40;8.10;;;7.90;1.00;;;;;;5092534;28;20454;-76
2022/03/11 04:53:05;;;;;;;12.23;7.63;;;8.00;1.00;;;;;;5083103;28;21049;-76
2022/03/11 04:55:33;;;;;;;15.97;8.20;;;7.90;1.00;;;;;;5083073;28;20464;-76
2022/03/11 04:58:01;;;;;;;17.60;8.67;;;7.80;1.00;;;;;;5085336;28;21219;-76
2022/03/11 05:00:31;;;;;;;13.83;8.57;;;7.80;1.00;;;;;;5087254;28;20512;-78
2022/03/11 05:03:00;;;;;;;15.18;11.30;;;7.80;1.00;;;;;;5084350;28;20440;-77
2022/03/11 05:05:29;;;;;;;10.07;8.27;;;7.80;1.00;;;;;;5083212;28;20307;-78
2022/03/11 05:07:57;;;;;;;12.70;8.37;;;7.80;1.00;;;;;;5089988;28;20565;-79
2022/03/11 05:10:25;;;;;;;9.93;7.80;;;7.80;1.00;;;;;;5091096;28;20456;-78
2022/03/11 05:12:54;;;;;;;12.83;8.33;;;7.90;1.00;;;;;;5090819;28;20460;-78
2022/03/11 05:15:24;;;;;;;13.20;8.43;;;8.00;1.00;;;;;;5089059;28;20463;-78
2022/03/11 05:17:54;;;;;;;15.70;8.60;;;7.90;1.00;;;;;;5089466;28;20473;-77
2022/03/11 05:20:22;;;;;;;13.97;8.93;;;7.90;1.00;;;;;;5089426;28;20466;-78
2022/03/11 05:22:51;;;;;;;15.87;9.43;;;7.90;1.00;;;;;;5092298;28;20442;-78
2022/03/11 05:25:19;;;;;;;10.63;8.70;;;7.90;1.00;;;;;;5091506;28;20843;-78
2022/03/11 05:27:47;;;;;;;14.83;10.00;;;7.70;1.00;;;;;;5090099;28;20478;-79
2022/03/11 05:30:16;;;;;;;14.43;9.10;;;7.80;1.00;;;;;;5087798;28;21289;-78
2022/03/11 05:32:46;;;;;;;14.03;9.20;;;7.80;1.00;;;;;;5086625;28;20510;-78
2022/03/11 05:35:17;;;;;;;14.93;9.20;;;7.70;1.00;;;;;;5091431;28;20439;-78
2022/03/11 05:37:46;;;;;;;12.70;8.10;;;7.60;1.00;;;;;;5089356;28;20550;-78
2022/03/11 05:40:14;;;;;;;10.87;8.17;;;7.80;1.00;;;;;;5087186;28;21283;-78
2022/03/11 05:42:42;;;;;;;15.27;8.90;;;7.70;1.00;;;;;;5086441;28;20567;-78
2022/03/11 05:45:12;;;;;;;13.00;8.13;;;7.60;1.00;;;;;;5080494;28;20480;-78
2022/03/11 05:47:40;;;;;;;13.00;8.20;;;7.70;1.00;;;;;;5082501;28;20840;-77
2022/03/11 05:50:09;;;;;;;15.77;11.02;;;7.70;1.00;;;;;;5093045;28;20444;-78
2022/03/11 05:52:40;;;;;;;15.90;9.50;;;7.70;1.00;;;;;;5086576;28;20674;-79
2022/03/11 05:55:09;;;;;;;12.70;8.60;;;7.50;1.00;;;;;;5081879;28;20524;-77
2022/03/11 05:57:37;;;;;;;12.03;7.60;;;7.60;1.00;;;;;;5080415;28;20487;-77
2022/03/11 06:00:07;;;;;;;12.90;8.70;;;7.60;1.00;;;;;;5083907;28;20941;-78
2022/03/11 06:02:39;;;;;;;11.13;7.90;;;7.50;1.00;;;;;;5082474;28;20455;-77
2022/03/11 06:05:10;;;;;;;14.93;9.17;;;7.50;1.00;;;;;;5082485;28;20476;-78
2022/03/11 06:07:40;;;;;;;12.07;8.17;;;7.50;1.00;;;;;;5080924;28;20480;-77
2022/03/11 06:10:09;;;;;;;11.40;8.30;;;7.50;1.00;;;;;;5081073;28;20461;-77
2022/03/11 06:12:38;;;;;;;13.30;9.43;;;7.40;1.00;;;;;;5083429;28;20455;-78
2022/03/11 06:15:08;;;;;;;13.83;8.40;;;7.40;1.00;;;;;;5082775;28;20934;-77
2022/03/11 06:17:36;;;;;;;16.00;10.43;;;7.40;1.00;;;;;;5080329;28;20474;-78
2022/03/11 06:20:06;;;;;;;13.70;8.90;;;7.30;1.00;;;;;;5079527;28;20464;-77
2022/03/11 06:22:35;;;;;;;15.80;9.27;;;7.30;1.00;;;;;;5079784;28;20453;-77
2022/03/11 06:25:05;;;;;;;11.10;8.53;;;7.30;1.00;;;;;;5084772;28;21022;-78
2022/03/11 06:27:33;;;;;;;13.60;9.27;;;7.30;1.00;;;;;;5075346;28;20480;-76
2022/03/11 06:30:01;;;;;;;11.13;8.20;;;7.20;1.00;;;;;;5081896;28;20452;-77
2022/03/11 06:32:29;;;;;;;16.10;10.77;;;7.20;1.00;;;;;;5078584;28;20455;-77
2022/03/11 06:34:57;;;;;;;11.07;9.43;;;7.20;1.00;;;;;;5077995;28;20458;-77
2022/03/11 06:37:25;;;;;;;13.23;8.37;;;7.30;1.00;;;;;;5077845;28;20525;-77
2022/03/11 06:39:54;;;;;;;14.30;9.17;;;7.40;1.00;;;;;;5085348;28;20509;-78
2022/03/11 06:42:23;;;;;;;14.43;9.67;;;7.00;1.00;;;;;;5086293;28;20452;-76
2022/03/11 06:44:51;;;;;;;14.80;9.03;;;7.10;1.00;;;;;;5081375;28;20452;-77
2022/03/11 06:47:20;;;;;;;11.70;8.13;;;7.30;1.00;;;;;;5084448;28;20561;-77
2022/03/11 06:49:48;;;;;;;14.73;8.87;;;7.50;1.00;;;;;;5083697;28;21360;-77
2022/03/11 06:52:16;;;;;;;13.80;9.13;;;7.40;1.00;;;;;;5078538;28;20491;-77
2022/03/11 06:54:44;;;;;;;17.33;10.00;;;7.70;1.00;;;;;;5080321;28;20599;-77
2022/03/11 06:57:12;;;;;;;14.17;8.90;;;7.90;1.00;;;;;;5080607;28;20472;-77
2022/03/11 06:59:42;;;;;;;14.10;8.43;;;8.00;1.00;;;;;;5079180;28;20449;-78
2022/03/11 07:02:10;;;;;;;13.70;8.80;;;7.90;1.00;;;;;;5081563;28;20466;-78
2022/03/11 07:04:38;;;;;;;15.63;9.60;;;8.10;1.00;;;;;;5079911;28;20492;-77
2022/03/11 07:07:06;;;;;;;13.20;8.73;;;7.70;1.00;;;;;;5084684;28;20493;-77
2022/03/11 07:09:35;;;;;;;11.87;8.20;;;7.70;1.00;;;;;;5084668;28;20459;-77
2022/03/11 07:12:03;;;;;;;15.40;8.93;;;7.60;1.00;;;;;;5079799;28;20453;-77
2022/03/11 07:14:33;;;;;;;13.20;8.80;;;7.60;1.00;;;;;;5081145;28;20480;-77
2022/03/11 07:17:03;;;;;;;14.63;10.40;;;7.30;1.00;;;;;;5081941;28;20484;-77
2022/03/11 07:19:31;;;;;;;11.10;8.10;;;7.20;1.00;;;;;;5074709;28;20487;-77
2022/03/11 07:22:01;;;;;;;14.93;8.63;;;7.00;1.00;;;;;;5076186;28;20529;-78
2022/03/11 07:24:30;;;;;;;13.80;7.77;;;6.80;1.00;;;;;;5079034;28;20459;-78
2022/03/11 07:26:58;;;;;;;14.87;8.30;;;6.80;1.00;;;;;;5084049;28;20490;-77
2022/03/11 07:29:26;;;;;;;13.00;8.57;;;6.90;1.00;;;;;;5083219;28;20463;-78
2022/03/11 07:31:54;;;;;;;13.20;8.43;;;7.00;1.00;;;;;;5078785;28;20910;-78
2022/03/11 07:34:26;;;;;;;12.87;7.80;;;6.90;1.00;;;;;;5081158;28;20451;-78
2022/03/11 07:36:54;;;;;;;11.30;8.00;;;6.90;1.00;;;;;;5078161;28;20559;-77
2022/03/11 07:39:22;;;;;;;10.50;7.80;;;7.30;1.00;;;;;;5082406;28;20527;-77
2022/03/11 07:41:50;;;;;;;11.50;7.73;;;7.20;1.00;;;;;;5074222;28;20455;-78
2022/03/11 07:44:20;;;;;;;11.93;8.20;;;7.30;1.00;;;;;;5082237;28;20549;-78
2022/03/11 07:46:57;;;;;;;10.53;7.80;;;7.40;1.00;;;;;;5079997;28;20478;-78
2022/03/11 07:49:28;;;;;;;13.70;8.47;;;7.40;1.00;;;;;;5079553;28;20444;-77
2022/03/11 07:51:57;;;;;;;11.97;8.23;;;7.50;1.00;;;;;;5079475;28;20544;-78
2022/03/11 07:54:25;;;;;;;14.13;8.30;;;8.00;1.00;;;;;;5081598;28;20462;-78
2022/03/11 07:56:53;;;;;;;12.57;8.23;;;8.00;1.00;;;;;;5083532;28;20450;-77
2022/03/11 07:59:21;;;;;;;14.70;8.90;;;7.90;1.00;;;;;;5076640;28;20462;-77
2022/03/11 08:01:49;;;;;;;9.30;8.20;;;8.00;1.00;;;;;;5079612;28;21044;-77
2022/03/11 08:04:18;;;;;;;13.07;9.73;;;8.20;1.00;;;;;;5081634;28;20444;-77
2022/03/11 08:06:48;;;;;;;12.20;8.93;;;8.50;1.00;;;;;;5077876;28;21010;-77
2022/03/11 08:09:16;;;;;;;12.20;7.80;;;8.80;1.00;;;;;;5077559;28;20451;-78
2022/03/11 08:11:45;;;;;;;11.73;8.40;;;9.00;1.00;;;;;;5082137;28;20440;-77
2022/03/11 08:14:13;;;;;;;12.87;8.10;;;9.20;1.00;;;;;;5081294;28;20538;-77
2022/03/11 08:16:42;;;;;;;17.33;10.20;;;9.50;1.00;;;;;;5079677;28;20463;-77
2022/03/11 08:19:10;;;;;;;14.73;10.73;;;9.80;1.00;;;;;;5083984;28;20979;-77
2022/03/11 08:21:51;;;;;;;14.73;10.30;;;10.00;1.00;;;;;;5081923;28;20455;-77
2022/03/11 08:24:20;;;;;;;14.23;9.43;;;10.20;1.00;;;;;;5082225;28;20211;-77
2022/03/11 08:26:48;;;;;;;14.73;9.57;;;10.50;1.00;;;;;;5082757;28;20530;-77
2022/03/11 08:29:19;;;;;;;12.63;8.63;;;10.70;1.00;;;;;;5078996;28;20461;-79
2022/03/11 08:31:48;;;;;;;13.60;9.77;;;10.80;1.00;;;;;;5079482;28;20497;-78
2022/03/11 08:34:17;;;;;;;10.47;8.60;;;11.00;1.00;;;;;;5080289;28;20450;-78
2022/03/11 08:36:45;;;;;;;14.43;9.40;;;10.80;1.00;;;;;;5080721;28;20453;-77
2022/03/11 08:39:14;;;;;;;15.07;8.97;;;11.00;1.00;;;;;;5081462;28;21279;-78
2022/03/11 08:41:43;;;;;;;11.70;8.53;;;11.20;1.00;;;;;;5076802;28;20469;-77
2022/03/11 08:44:11;;;;;;;16.37;8.97;;;11.30;1.00;;;;;;5077512;28;20852;-77
2022/03/11 08:46:39;;;;;;;16.20;10.10;;;11.30;1.00;;;;;;5075515;28;20481;-78
2022/03/11 08:49:08;;;;;;;13.83;8.57;;;11.20;1.00;;;;;;5076750;28;20450;-77
2022/03/11 08:51:36;;;;;;;16.37;7.63;;;11.20;1.00;;;;;;5078768;28;20467;-77
2022/03/11 08:54:05;;;;;;;13.63;8.20;;;11.50;1.00;;;;;;5080383;28;20553;-78
2022/03/11 08:56:34;;;;;;;14.50;8.40;;;11.60;1.00;;;;;;5081098;28;20465;-77
2022/03/11 08:59:02;;;;;;;13.37;8.73;;;11.70;1.00;;;;;;5079512;28;20556;-78
2022/03/11 09:01:31;;;;;;;12.40;8.40;;;11.70;1.00;;;;;;5080218;28;20442;-76
2022/03/11 09:03:59;;;;;;;12.73;9.07;;;11.90;1.00;;;;;;5075815;28;20485;-78
2022/03/11 09:06:28;;;;;;;17.93;9.50;;;12.10;1.00;;;;;;5077559;28;20502;-77
2022/03/11 09:08:56;;;;;;;15.33;9.23;;;12.30;1.00;;;;;;5080926;28;20512;-76
2022/03/11 09:11:24;;;;;;;12.83;8.50;;;12.50;1.00;;;;;;5076698;28;20440;-78
2022/03/11 09:13:55;;;;;;;12.30;7.97;;;12.60;1.00;;;;;;5082159;28;20458;-77
2022/03/11 09:16:23;;;;;;;12.50;8.07;;;12.70;1.00;;;;;;5081529;28;20448;-77
2022/03/11 09:18:52;;;;;;;14.50;8.47;;;13.00;1.00;;;;;;5083690;28;20491;-78
2022/03/11 09:21:20;;;;;;;11.43;8.07;;;13.00;1.00;;;;;;5084855;28;20479;-78
2022/03/11 09:23:49;;;;;;;14.87;9.23;;;13.00;1.00;;;;;;5078304;28;20457;-77
2022/03/11 09:26:17;;;;;;;14.87;8.57;;;13.10;1.00;;;;;;5100600;28;20454;-78
2022/03/11 09:28:45;;;;;;;12.70;7.90;;;13.30;1.00;;;;;;5077945;28;20500;-78
2022/03/11 09:31:15;;;;;;;10.83;7.90;;;13.60;1.00;;;;;;5077315;28;20450;-77
2022/03/11 09:33:44;;;;;;;15.17;9.10;;;13.80;1.00;;;;;;5081992;28;20465;-78
2022/03/11 09:36:12;;;;;;;14.10;8.30;;;13.90;1.00;;;;;;5080899;28;20457;-78
2022/03/11 09:38:41;;;;;;;9.97;9.03;;;14.00;1.00;;;;;;5084393;28;20472;-79
2022/03/11 09:41:10;;;;;;;11.67;8.40;;;14.20;1.00;;;;;;5085021;28;20457;-77
2022/03/11 09:43:39;;;;;;;12.10;9.03;;;14.40;1.00;;;;;;5078300;28;20471;-77
2022/03/11 09:46:10;;;;;;;12.20;8.67;;;14.40;1.00;;;;;;5080293;28;20451;-77
2022/03/11 09:48:41;;;;;;;10.03;8.07;;;14.60;1.00;;;;;;5083770;28;20476;-77
2022/03/11 09:51:11;;;;;;;9.67;8.67;;;14.80;1.00;;;;;;5095341;28;20487;-78
2022/03/11 09:53:43;;;;;;;12.53;8.57;;;14.90;1.00;;;;;;5083915;28;20467;-79
2022/03/11 09:56:11;;;;;;;10.50;8.27;;;15.00;1.00;;;;;;5083825;28;21301;-78
2022/03/11 09:58:39;;;;;;;11.18;8.95;;;15.00;1.00;;;;;;5083593;28;20480;-78
2022/03/11 10:01:08;;;;;;;12.00;8.30;;;15.10;1.00;;;;;;5082071;28;20244;-78
2022/03/11 10:03:39;;;;;;;13.13;8.40;;;15.10;1.00;;;;;;5079078;28;20952;-78
2022/03/11 10:06:07;;;;;;;12.50;8.97;;;15.00;1.00;;;;;;5083760;28;20461;-78
2022/03/11 10:08:37;;;;;;;11.17;7.83;;;15.00;1.00;;;;;;5078665;28;20541;-78
2022/03/11 10:11:21;;;;;;;10.13;7.60;;;15.20;1.00;;;;;;5083998;28;20461;-78
2022/03/11 10:13:50;;;;;;;10.37;7.67;;;15.30;1.00;;;;;;5082005;28;20471;-79
2022/03/11 10:16:20;;;;;;;11.00;7.73;;;15.10;1.00;;;;;;5082492;28;20823;-78
2022/03/11 10:19:01;;;;;;;12.10;7.67;;;15.20;1.00;;;;;;5083899;28;20473;-78
2022/03/11 10:21:32;;;;;;;11.27;8.37;;;15.10;1.00;;;;;;5081269;28;20462;-77
2022/03/11 10:24:02;;;;;;;10.77;8.48;;;15.10;1.00;;;;;;5080797;28;20432;-78
2022/03/11 10:26:39;;;;;;;10.43;7.90;;;15.20;1.00;;;;;;5080860;28;20205;-78
2022/03/11 10:29:11;;;;;;;7.87;7.00;;;15.20;1.00;;;;;;5076510;28;20488;-79
2022/03/11 10:31:42;;;;;;;8.90;6.53;;;15.30;1.00;;;;;;5083625;28;20449;-78
2022/03/11 10:34:21;;;;;;;9.00;7.57;;;15.60;1.00;;;;;;5084092;28;20520;-78
2022/03/11 10:36:52;;;;;;;9.20;7.00;;;15.90;1.00;;;;;;5082945;28;20546;-78
2022/03/11 10:39:22;;;;;;;8.93;7.43;;;16.10;1.00;;;;;;5081594;28;20448;-79
2022/03/11 10:41:53;;;;;;;9.50;7.53;;;16.30;1.00;;;;;;5079966;28;20466;-78
2022/03/11 10:44:23;;;;;;;9.00;6.90;;;16.20;1.00;;;;;;5080455;28;20470;-78
2022/03/11 10:46:51;;;;;;;8.50;6.93;;;16.60;1.00;;;;;;5085227;28;20591;-78
2022/03/11 10:49:31;;;;;;;8.43;6.90;;;17.00;1.00;;;;;;5078794;28;20507;-78
2022/03/11 10:52:01;;;;;;;9.87;7.23;;;17.10;1.00;;;;;;5080691;28;20484;-78
2022/03/11 10:54:30;;;;;;;10.00;7.20;;;17.00;1.00;;;;;;5085952;28;20444;-79
2022/03/11 10:57:11;;;;;;;8.20;7.10;;;16.90;1.00;;;;;;5078155;28;20466;-79
2022/03/11 10:59:39;;;;;;;7.70;6.90;;;17.10;1.00;;;;;;5079079;28;20490;-78
2022/03/11 11:02:09;;;;;;;8.63;7.13;;;17.80;1.00;;;;;;5081039;28;20461;-78
2022/03/11 11:04:42;;;;;;;8.27;7.43;;;18.50;1.00;;;;;;5083219;28;20554;-78
2022/03/11 11:07:10;;;;;;;8.70;6.70;;;18.90;1.00;;;;;;5079968;28;20481;-78
2022/03/11 11:09:39;;;;;;;9.27;7.37;;;18.70;1.00;;;;;;5079529;28;20639;-77
2022/03/11 11:12:12;;;;;;;9.50;7.40;;;18.60;1.00;;;;;;5081678;28;20632;-78
2022/03/11 11:14:40;;;;;;;7.80;6.97;;;18.60;1.00;;;;;;5082468;28;20514;-78
2022/03/11 11:17:10;;;;;;;12.30;7.00;;;18.60;1.00;;;;;;5082305;28;20843;-79
2022/03/11 11:19:45;;;;;;;8.83;6.83;;;18.60;1.00;;;;;;5079027;28;20461;-79
2022/03/11 11:22:15;;;;;;;8.93;6.70;;;18.70;1.00;;;;;;5077604;28;20463;-79
2022/03/11 11:24:44;;;;;;;8.70;7.83;;;18.90;1.00;;;;;;5081313;28;20619;-79
2022/03/11 11:27:14;;;;;;;7.20;6.27;;;19.10;1.00;;;;;;5082820;28;20535;-78
2022/03/11 11:29:43;;;;;;;9.20;6.90;;;19.30;1.00;;;;;;5078526;28;20489;-78
2022/03/11 11:32:11;;;;;;;9.70;7.57;;;19.40;1.00;;;;;;5081771;28;20466;-78
2022/03/11 11:34:41;;;;;;;10.20;7.20;;;19.50;1.00;;;;;;5099912;28;21041;-79
2022/03/11 11:37:38;;;;;;;7.17;6.10;;;19.80;1.00;;;;;;5082970;28;20481;-80
2022/03/11 11:40:30;;;;;;;9.43;7.63;;;19.20;1.00;;;;;;5080999;28;21027;-78
2022/03/11 11:43:26;;;;;;;9.50;7.23;;;18.70;1.00;;;;;;5083640;28;20453;-78
2022/03/11 11:45:58;;;;;;;6.93;5.47;;;18.70;1.00;;;;;;5092389;28;20476;-79
2022/03/11 11:49:03;;;;;;;8.73;6.40;;;18.60;1.00;;;;;;5078724;28;20493;-79
2022/03/11 11:52:01;;;;;;;10.50;6.00;;;18.70;1.00;;;;;;5078220;28;20253;-79
2022/03/11 11:54:53;;;;;;;8.77;6.93;;;18.80;1.00;;;;;;5080584;28;20486;-78
2022/03/11 11:57:26;;;;;;;7.20;5.33;;;18.70;1.00;;;;;;5078146;28;20477;-79
2022/03/11 11:59:55;;;;;;;5.73;4.90;;;18.40;1.00;;;;;;5083459;28;20456;-78
2022/03/11 12:02:36;;;;;;;7.23;5.50;;;18.20;1.00;;;;;;5077001;28;20481;-78
2022/03/11 12:05:40;;;;;;;9.03;6.20;;;18.10;1.00;;;;;;5083931;28;20546;-78
2022/03/11 12:08:11;;;;;;;7.10;5.37;;;18.20;1.00;;;;;;5080472;28;21308;-78
2022/03/11 12:10:54;;;;;;;7.27;5.83;;;18.10;1.00;;;;;;5077182;28;20500;-78
2022/03/11 12:13:34;;;;;;;6.70;5.50;;;18.10;1.00;;;;;;5080574;28;20470;-80
2022/03/11 12:16:20;;;;;;;6.20;4.90;;;18.10;1.00;;;;;;5082114;28;20549;-80
2022/03/11 12:18:49;;;;;;;11.03;6.70;;;18.10;1.00;;;;;;5079849;28;20488;-78
2022/03/11 12:21:27;;;;;;;7.43;6.20;;;18.10;1.00;;;;;;5083898;28;20477;-78
2022/03/11 12:24:32;;;;;;;8.23;6.68;;;18.20;1.00;;;;;;5084350;28;20516;-78
2022/03/11 12:27:01;;;;;;;8.63;6.60;;;18.10;1.00;;;;;;5080527;28;20500;-79
2022/03/11 12:29:35;;;;;;;7.87;6.37;;;18.10;1.00;;;;;;5078094;28;20211;-77
2022/03/11 12:32:07;;;;;;;8.43;5.97;;;18.00;1.00;;;;;;5079398;28;20452;-78
2022/03/11 12:34:35;;;;;;;7.10;5.37;;;17.90;1.00;;;;;;5082333;28;20464;-79
2022/03/11 12:37:06;;;;;;;8.97;5.63;;;17.90;1.00;;;;;;5081793;28;20499;-78
2022/03/11 12:39:36;;;;;;;8.38;6.40;;;17.90;1.00;;;;;;5080421;28;20446;-78
2022/03/11 12:42:05;;;;;;;8.83;6.60;;;17.90;1.00;;;;;;5081365;28;20196;-79
2022/03/11 12:44:45;;;;;;;7.00;5.80;;;17.70;1.00;;;;;;5083899;28;20950;-78
2022/03/11 12:47:16;;;;;;;6.67;5.97;;;17.80;1.00;;;;;;5083004;28;20472;-78
2022/03/11 12:49:44;;;;;;;7.67;5.93;;;17.90;1.00;;;;;;5082781;28;21122;-78
2022/03/11 12:52:18;;;;;;;9.43;6.20;;;17.90;1.00;;;;;;5083712;28;20512;-79
2022/03/11 12:54:48;;;;;;;9.67;6.53;;;17.90;1.00;;;;;;5084912;28;20469;-77
2022/03/11 12:57:16;;;;;;;8.60;6.30;;;18.00;1.00;;;;;;5084153;28;20447;-78
2022/03/11 12:59:45;;;;;;;8.07;5.70;;;18.10;1.00;;;;;;5079266;28;20246;-77
2022/03/11 13:02:14;;;;;;;9.20;7.40;;;18.30;1.00;;;;;;5083133;28;20510;-78
2022/03/11 13:04:43;;;;;;;9.67;6.60;;;18.20;1.00;;;;;;5087251;28;20483;-78
2022/03/11 13:07:29;;;;;;;9.90;6.53;;;18.00;1.00;;;;;;5083351;28;20472;-78
2022/03/11 13:10:18;;;;;;;9.70;6.70;;;18.10;1.00;;;;;;5085205;28;20568;-78
2022/03/11 13:12:47;;;;;;;9.63;6.50;;;18.10;1.00;;;;;;5088813;28;20480;-79